sensor_id;sensor_type;location;lat;lon;timestamp;P1;durP1;ratioP1;P2;durP2;ratioP2
27127;SDS011;14660;49.008;8.390;2022-08-04T00:10:19;6.32;;;3.08;;
27127;SDS011;14660;49.008;8.390;2022-08-04T00:12:50;3.58;;;2.65;;
27127;SDS011;14660;49.008;8.390;2022-08-04T00:15:19;4.57;;;3.08;;
27127;SDS011;14660;49.008;8.390;2022-08-04T00:17:50;3.72;;;2.90;;
27127;SDS011;14660;49.008;8.390;2022-08-04T00:20:21;4.45;;;2.40;;
27127;SDS011;14660;49.008;8.390;2022-08-04T00:22:54;5.18;;;3.30;;
27127;SDS011;14660;49.008;8.390;2022-08-04T00:25:23;5.82;;;3.17;;
27127;SDS011;14660;49.008;8.390;2022-08-04T00:27:50;5.55;;;2.97;;
27127;SDS011;14660;49.008;8.390;2022-08-04T00:30:17;3.85;;;2.58;;
27127;SDS011;14660;49.008;8.390;2022-08-04T00:32:44;5.07;;;2.63;;
27127;SDS011;14660;49.008;8.390;2022-08-04T00:35:15;6.70;;;3.15;;
27127;SDS011;14660;49.008;8.390;2022-08-04T00:37:46;3.28;;;2.97;;
27127;SDS011;14660;49.008;8.390;2022-08-04T01:16:26;3.45;;;2.67;;
27127;SDS011;14660;49.008;8.390;2022-08-04T01:30:55;5.05;;;3.10;;
27127;SDS011;14660;49.008;8.390;2022-08-04T01:33:26;5.57;;;2.95;;
27127;SDS011;14660;49.008;8.390;2022-08-04T01:35:55;4.65;;;2.33;;
27127;SDS011;14660;49.008;8.390;2022-08-04T01:38:34;2.90;;;2.58;;
27127;SDS011;14660;49.008;8.390;2022-08-04T01:41:03;3.53;;;2.55;;
27127;SDS011;14660;49.008;8.390;2022-08-04T01:43:33;2.92;;;2.42;;
27127;SDS011;14660;49.008;8.390;2022-08-04T01:46:02;5.20;;;3.00;;
27127;SDS011;14660;49.008;8.390;2022-08-04T01:48:30;4.35;;;3.22;;
27127;SDS011;14660;49.008;8.390;2022-08-04T01:50:58;6.22;;;2.78;;
27127;SDS011;14660;49.008;8.390;2022-08-04T01:53:30;3.67;;;2.95;;
27127;SDS011;14660;49.008;8.390;2022-08-04T01:56:00;2.88;;;2.53;;
27127;SDS011;14660;49.008;8.390;2022-08-04T01:58:28;3.10;;;2.80;;
27127;SDS011;14660;49.008;8.390;2022-08-04T02:03:43;5.40;;;3.00;;
27127;SDS011;14660;49.008;8.390;2022-08-04T02:15:27;4.03;;;2.88;;
27127;SDS011;14660;49.008;8.390;2022-08-04T02:17:59;4.45;;;2.90;;
27127;SDS011;14660;49.008;8.390;2022-08-04T02:23:39;4.32;;;2.92;;
27127;SDS011;14660;49.008;8.390;2022-08-04T02:26:16;5.70;;;2.67;;
27127;SDS011;14660;49.008;8.390;2022-08-04T02:28:51;3.60;;;2.92;;
27127;SDS011;14660;49.008;8.390;2022-08-04T02:37:25;4.87;;;3.67;;
27127;SDS011;14660;49.008;8.390;2022-08-04T02:39:53;4.68;;;3.15;;
27127;SDS011;14660;49.008;8.390;2022-08-04T02:42:24;4.57;;;3.25;;
27127;SDS011;14660;49.008;8.390;2022-08-04T02:44:52;3.15;;;2.60;;
27127;SDS011;14660;49.008;8.390;2022-08-04T02:47:24;4.50;;;3.10;;
27127;SDS011;14660;49.008;8.390;2022-08-04T02:49:53;4.25;;;3.60;;
27127;SDS011;14660;49.008;8.390;2022-08-04T02:52:22;4.90;;;3.45;;
27127;SDS011;14660;49.008;8.390;2022-08-04T02:54:54;10.25;;;3.28;;
27127;SDS011;14660;49.008;8.390;2022-08-04T03:44:44;5.40;;;3.20;;
27127;SDS011;14660;49.008;8.390;2022-08-04T03:47:35;4.10;;;3.45;;
27127;SDS011;14660;49.008;8.390;2022-08-04T04:54:16;5.82;;;3.35;;
27127;SDS011;14660;49.008;8.390;2022-08-04T04:59:21;6.03;;;3.42;;
27127;SDS011;14660;49.008;8.390;2022-08-04T05:14:13;9.50;;;5.65;;
27127;SDS011;14660;49.008;8.390;2022-08-04T05:16:45;10.82;;;5.72;;
27127;SDS011;14660;49.008;8.390;2022-08-04T05:24:45;7.20;;;4.53;;
27127;SDS011;14660;49.008;8.390;2022-08-04T05:27:16;10.50;;;5.72;;
27127;SDS011;14660;49.008;8.390;2022-08-04T05:29:54;7.05;;;5.03;;
27127;SDS011;14660;49.008;8.390;2022-08-04T05:32:28;8.70;;;4.80;;
27127;SDS011;14660;49.008;8.390;2022-08-04T05:35:15;9.32;;;4.85;;
27127;SDS011;14660;49.008;8.390;2022-08-04T05:37:53;5.57;;;4.63;;
27127;SDS011;14660;49.008;8.390;2022-08-04T05:40:23;10.15;;;5.63;;
27127;SDS011;14660;49.008;8.390;2022-08-04T05:42:51;8.18;;;5.65;;
27127;SDS011;14660;49.008;8.390;2022-08-04T05:45:20;7.78;;;5.88;;
27127;SDS011;14660;49.008;8.390;2022-08-04T05:47:50;11.25;;;6.55;;
27127;SDS011;14660;49.008;8.390;2022-08-04T05:50:19;8.07;;;6.35;;
27127;SDS011;14660;49.008;8.390;2022-08-04T05:52:47;7.15;;;5.20;;
27127;SDS011;14660;49.008;8.390;2022-08-04T05:55:16;10.75;;;5.20;;
27127;SDS011;14660;49.008;8.390;2022-08-04T05:57:44;9.30;;;5.25;;
27127;SDS011;14660;49.008;8.390;2022-08-04T06:00:14;8.65;;;5.28;;
27127;SDS011;14660;49.008;8.390;2022-08-04T06:02:43;9.38;;;5.45;;
27127;SDS011;14660;49.008;8.390;2022-08-04T06:05:13;8.73;;;5.18;;
27127;SDS011;14660;49.008;8.390;2022-08-04T06:07:43;8.07;;;4.53;;
27127;SDS011;14660;49.008;8.390;2022-08-04T06:10:11;7.30;;;4.78;;
27127;SDS011;14660;49.008;8.390;2022-08-04T06:15:23;7.78;;;4.90;;
27127;SDS011;14660;49.008;8.390;2022-08-04T06:17:53;6.97;;;5.45;;
27127;SDS011;14660;49.008;8.390;2022-08-04T06:20:29;6.10;;;4.63;;
27127;SDS011;14660;49.008;8.390;2022-08-04T06:22:59;6.82;;;4.68;;
27127;SDS011;14660;49.008;8.390;2022-08-04T06:25:32;8.60;;;5.13;;
27127;SDS011;14660;49.008;8.390;2022-08-04T06:28:04;7.70;;;5.55;;
27127;SDS011;14660;49.008;8.390;2022-08-04T06:30:33;8.85;;;6.30;;
27127;SDS011;14660;49.008;8.390;2022-08-04T06:33:02;10.77;;;6.93;;
27127;SDS011;14660;49.008;8.390;2022-08-04T06:35:39;7.55;;;6.35;;
27127;SDS011;14660;49.008;8.390;2022-08-04T06:38:06;10.05;;;6.40;;
27127;SDS011;14660;49.008;8.390;2022-08-04T06:40:34;11.38;;;6.40;;
27127;SDS011;14660;49.008;8.390;2022-08-04T06:43:02;13.02;;;6.35;;
27127;SDS011;14660;49.008;8.390;2022-08-04T06:45:32;8.00;;;5.75;;
27127;SDS011;14660;49.008;8.390;2022-08-04T06:48:02;12.93;;;6.90;;
27127;SDS011;14660;49.008;8.390;2022-08-04T06:50:33;8.52;;;5.47;;
27127;SDS011;14660;49.008;8.390;2022-08-04T06:53:01;10.75;;;5.30;;
27127;SDS011;14660;49.008;8.390;2022-08-04T06:55:30;8.02;;;5.18;;
27127;SDS011;14660;49.008;8.390;2022-08-04T06:57:58;11.63;;;6.03;;
27127;SDS011;14660;49.008;8.390;2022-08-04T07:00:27;9.45;;;5.60;;
27127;SDS011;14660;49.008;8.390;2022-08-04T07:02:56;7.30;;;6.15;;
27127;SDS011;14660;49.008;8.390;2022-08-04T07:05:24;9.88;;;5.82;;
27127;SDS011;14660;49.008;8.390;2022-08-04T07:07:51;9.00;;;5.55;;
27127;SDS011;14660;49.008;8.390;2022-08-04T07:10:19;6.55;;;5.38;;
27127;SDS011;14660;49.008;8.390;2022-08-04T07:12:48;7.97;;;4.72;;
27127;SDS011;14660;49.008;8.390;2022-08-04T07:15:16;6.10;;;5.50;;
27127;SDS011;14660;49.008;8.390;2022-08-04T07:17:43;6.03;;;4.95;;
27127;SDS011;14660;49.008;8.390;2022-08-04T07:20:11;5.93;;;4.40;;
27127;SDS011;14660;49.008;8.390;2022-08-04T07:22:39;7.50;;;5.22;;
27127;SDS011;14660;49.008;8.390;2022-08-04T07:25:10;5.47;;;4.68;;
27127;SDS011;14660;49.008;8.390;2022-08-04T07:27:38;7.85;;;4.72;;
27127;SDS011;14660;49.008;8.390;2022-08-04T07:30:08;7.07;;;4.72;;
27127;SDS011;14660;49.008;8.390;2022-08-04T07:32:36;9.50;;;4.97;;
27127;SDS011;14660;49.008;8.390;2022-08-04T07:35:06;5.97;;;4.20;;
27127;SDS011;14660;49.008;8.390;2022-08-04T07:37:34;5.25;;;3.78;;
27127;SDS011;14660;49.008;8.390;2022-08-04T07:40:01;4.35;;;3.95;;
27127;SDS011;14660;49.008;8.390;2022-08-04T07:42:30;5.97;;;3.65;;
27127;SDS011;14660;49.008;8.390;2022-08-04T07:44:56;6.28;;;3.47;;
27127;SDS011;14660;49.008;8.390;2022-08-04T07:47:24;9.27;;;3.60;;
27127;SDS011;14660;49.008;8.390;2022-08-04T07:49:52;5.43;;;3.83;;
27127;SDS011;14660;49.008;8.390;2022-08-04T07:52:20;6.50;;;3.63;;
27127;SDS011;14660;49.008;8.390;2022-08-04T07:54:48;6.90;;;3.60;;
27127;SDS011;14660;49.008;8.390;2022-08-04T07:57:16;4.07;;;3.40;;
27127;SDS011;14660;49.008;8.390;2022-08-04T07:59:46;6.82;;;3.85;;
27127;SDS011;14660;49.008;8.390;2022-08-04T08:02:13;6.80;;;3.60;;
27127;SDS011;14660;49.008;8.390;2022-08-04T08:04:41;6.20;;;3.55;;
27127;SDS011;14660;49.008;8.390;2022-08-04T08:07:09;7.13;;;3.83;;
27127;SDS011;14660;49.008;8.390;2022-08-04T08:09:37;3.50;;;3.22;;
27127;SDS011;14660;49.008;8.390;2022-08-04T08:12:04;5.15;;;3.15;;
27127;SDS011;14660;49.008;8.390;2022-08-04T08:14:34;6.65;;;3.90;;
27127;SDS011;14660;49.008;8.390;2022-08-04T08:17:01;4.10;;;3.70;;
27127;SDS011;14660;49.008;8.390;2022-08-04T08:19:29;5.35;;;3.70;;
27127;SDS011;14660;49.008;8.390;2022-08-04T08:21:57;4.25;;;3.08;;
27127;SDS011;14660;49.008;8.390;2022-08-04T08:24:28;4.43;;;3.20;;
27127;SDS011;14660;49.008;8.390;2022-08-04T08:26:56;5.43;;;3.50;;
27127;SDS011;14660;49.008;8.390;2022-08-04T08:29:25;3.85;;;3.47;;
27127;SDS011;14660;49.008;8.390;2022-08-04T08:31:55;4.90;;;3.20;;
27127;SDS011;14660;49.008;8.390;2022-08-04T08:34:22;10.10;;;3.47;;
27127;SDS011;14660;49.008;8.390;2022-08-04T08:36:52;9.10;;;4.07;;
27127;SDS011;14660;49.008;8.390;2022-08-04T08:51:16;4.15;;;3.65;;
27127;SDS011;14660;49.008;8.390;2022-08-04T09:11:21;3.28;;;2.83;;
27127;SDS011;14660;49.008;8.390;2022-08-04T09:17:05;6.20;;;3.08;;
27127;SDS011;14660;49.008;8.390;2022-08-04T09:20:06;3.45;;;2.88;;
27127;SDS011;14660;49.008;8.390;2022-08-04T09:25:45;6.10;;;3.17;;
27127;SDS011;14660;49.008;8.390;2022-08-04T09:28:34;2.55;;;2.35;;
27127;SDS011;14660;49.008;8.390;2022-08-04T09:31:16;5.43;;;2.50;;
27127;SDS011;14660;49.008;8.390;2022-08-04T09:43:08;3.97;;;2.47;;
27127;SDS011;14660;49.008;8.390;2022-08-04T09:45:32;3.13;;;2.65;;
27127;SDS011;14660;49.008;8.390;2022-08-04T09:50:57;4.68;;;2.50;;
27127;SDS011;14660;49.008;8.390;2022-08-04T09:59:23;4.88;;;3.25;;
27127;SDS011;14660;49.008;8.390;2022-08-04T10:02:12;2.90;;;2.70;;
27127;SDS011;14660;49.008;8.390;2022-08-04T10:04:41;4.80;;;2.90;;
27127;SDS011;14660;49.008;8.390;2022-08-04T10:28:04;6.05;;;2.83;;
27127;SDS011;14660;49.008;8.390;2022-08-04T10:30:35;3.75;;;2.85;;
27127;SDS011;14660;49.008;8.390;2022-08-04T10:35:52;3.17;;;2.60;;
27127;SDS011;14660;49.008;8.390;2022-08-04T10:38:41;4.20;;;2.70;;
27127;SDS011;14660;49.008;8.390;2022-08-04T10:46:57;5.35;;;2.92;;
27127;SDS011;14660;49.008;8.390;2022-08-04T10:55:22;3.00;;;2.70;;
27127;SDS011;14660;49.008;8.390;2022-08-04T10:58:00;4.68;;;2.75;;
27127;SDS011;14660;49.008;8.390;2022-08-04T11:00:32;4.13;;;2.60;;
27127;SDS011;14660;49.008;8.390;2022-08-04T11:06:04;4.35;;;2.50;;
27127;SDS011;14660;49.008;8.390;2022-08-04T11:08:32;3.45;;;2.28;;
27127;SDS011;14660;49.008;8.390;2022-08-04T11:14:30;4.25;;;2.40;;
27127;SDS011;14660;49.008;8.390;2022-08-04T11:22:51;3.50;;;2.35;;
27127;SDS011;14660;49.008;8.390;2022-08-04T11:25:28;4.70;;;2.08;;
27127;SDS011;14660;49.008;8.390;2022-08-04T11:46:12;3.83;;;2.10;;
27127;SDS011;14660;49.008;8.390;2022-08-04T11:48:57;3.88;;;2.30;;
27127;SDS011;14660;49.008;8.390;2022-08-04T11:51:30;4.35;;;2.20;;
27127;SDS011;14660;49.008;8.390;2022-08-04T11:54:01;7.38;;;2.58;;
27127;SDS011;14660;49.008;8.390;2022-08-04T11:56:28;4.47;;;2.00;;
27127;SDS011;14660;49.008;8.390;2022-08-04T11:58:56;3.60;;;2.05;;
27127;SDS011;14660;49.008;8.390;2022-08-04T12:22:09;2.03;;;1.58;;
27127;SDS011;14660;49.008;8.390;2022-08-04T12:25:15;2.50;;;1.83;;
27127;SDS011;14660;49.008;8.390;2022-08-04T12:38:43;2.75;;;1.80;;
27127;SDS011;14660;49.008;8.390;2022-08-04T12:41:15;3.65;;;1.75;;
27127;SDS011;14660;49.008;8.390;2022-08-04T12:43:48;2.15;;;1.50;;
27127;SDS011;14660;49.008;8.390;2022-08-04T12:46:21;2.75;;;1.73;;
27127;SDS011;14660;49.008;8.390;2022-08-04T12:48:50;1.63;;;1.30;;
27127;SDS011;14660;49.008;8.390;2022-08-04T12:51:18;2.38;;;1.52;;
27127;SDS011;14660;49.008;8.390;2022-08-04T12:53:46;1.38;;;1.25;;
27127;SDS011;14660;49.008;8.390;2022-08-04T12:56:14;2.78;;;1.40;;
27127;SDS011;14660;49.008;8.390;2022-08-04T12:58:43;2.15;;;1.10;;
27127;SDS011;14660;49.008;8.390;2022-08-04T13:03:57;1.50;;;1.40;;
27127;SDS011;14660;49.008;8.390;2022-08-04T13:06:28;2.72;;;1.27;;
27127;SDS011;14660;49.008;8.390;2022-08-04T13:09:08;4.68;;;1.60;;
27127;SDS011;14660;49.008;8.390;2022-08-04T13:11:40;1.55;;;1.45;;
27127;SDS011;14660;49.008;8.390;2022-08-04T13:14:09;5.03;;;1.52;;
27127;SDS011;14660;49.008;8.390;2022-08-04T13:16:38;1.55;;;1.17;;
27127;SDS011;14660;49.008;8.390;2022-08-04T13:19:07;2.80;;;1.50;;
27127;SDS011;14660;49.008;8.390;2022-08-04T13:21:39;1.35;;;1.20;;
27127;SDS011;14660;49.008;8.390;2022-08-04T13:24:13;1.00;;;0.80;;
27127;SDS011;14660;49.008;8.390;2022-08-04T13:26:48;1.02;;;0.90;;
27127;SDS011;14660;49.008;8.390;2022-08-04T13:29:16;1.75;;;1.20;;
27127;SDS011;14660;49.008;8.390;2022-08-04T13:31:44;2.85;;;1.13;;
27127;SDS011;14660;49.008;8.390;2022-08-04T13:34:12;1.02;;;0.60;;
27127;SDS011;14660;49.008;8.390;2022-08-04T13:36:42;3.17;;;0.70;;
27127;SDS011;14660;49.008;8.390;2022-08-04T13:39:17;0.60;;;0.57;;
27127;SDS011;14660;49.008;8.390;2022-08-04T13:41:55;1.80;;;1.05;;
27127;SDS011;14660;49.008;8.390;2022-08-04T13:44:30;2.55;;;0.82;;
27127;SDS011;14660;49.008;8.390;2022-08-04T13:47:00;3.33;;;1.30;;
27127;SDS011;14660;49.008;8.390;2022-08-04T13:49:40;1.23;;;1.02;;
27127;SDS011;14660;49.008;8.390;2022-08-04T13:52:07;2.97;;;0.88;;
27127;SDS011;14660;49.008;8.390;2022-08-04T13:54:35;1.83;;;1.13;;
27127;SDS011;14660;49.008;8.390;2022-08-04T13:57:07;2.13;;;0.85;;
27127;SDS011;14660;49.008;8.390;2022-08-04T13:59:41;0.77;;;0.52;;
27127;SDS011;14660;49.008;8.390;2022-08-04T14:02:25;0.57;;;0.55;;
27127;SDS011;14660;49.008;8.390;2022-08-04T14:05:30;1.10;;;0.98;;
27127;SDS011;14660;49.008;8.390;2022-08-04T14:08:11;2.70;;;0.70;;
27127;SDS011;14660;49.008;8.390;2022-08-04T14:10:52;1.27;;;0.90;;
27127;SDS011;14660;49.008;8.390;2022-08-04T14:13:29;1.00;;;0.77;;
27127;SDS011;14660;49.008;8.390;2022-08-04T14:15:57;2.45;;;0.93;;
27127;SDS011;14660;49.008;8.390;2022-08-04T14:18:26;1.70;;;0.80;;
27127;SDS011;14660;49.008;8.390;2022-08-04T14:21:13;1.52;;;0.93;;
27127;SDS011;14660;49.008;8.390;2022-08-04T14:26:27;2.35;;;1.10;;
27127;SDS011;14660;49.008;8.390;2022-08-04T14:29:10;2.10;;;1.00;;
27127;SDS011;14660;49.008;8.390;2022-08-04T14:31:43;1.48;;;1.10;;
27127;SDS011;14660;49.008;8.390;2022-08-04T14:34:36;2.03;;;0.90;;
27127;SDS011;14660;49.008;8.390;2022-08-04T14:37:07;1.65;;;1.33;;
27127;SDS011;14660;49.008;8.390;2022-08-04T14:42:38;1.15;;;1.05;;
27127;SDS011;14660;49.008;8.390;2022-08-04T14:45:10;3.65;;;0.90;;
27127;SDS011;14660;49.008;8.390;2022-08-04T14:50:43;0.60;;;0.57;;
27127;SDS011;14660;49.008;8.390;2022-08-04T14:55:56;3.17;;;0.70;;
27127;SDS011;14660;49.008;8.390;2022-08-04T15:01:10;1.55;;;0.57;;
27127;SDS011;14660;49.008;8.390;2022-08-04T15:03:44;0.60;;;0.40;;
27127;SDS011;14660;49.008;8.390;2022-08-04T15:06:11;1.05;;;0.50;;
27127;SDS011;14660;49.008;8.390;2022-08-04T15:08:38;3.22;;;0.90;;
27127;SDS011;14660;49.008;8.390;2022-08-04T15:11:09;4.25;;;0.80;;
27127;SDS011;14660;49.008;8.390;2022-08-04T15:13:37;1.08;;;0.50;;
27127;SDS011;14660;49.008;8.390;2022-08-04T15:16:04;1.65;;;0.50;;
27127;SDS011;14660;49.008;8.390;2022-08-04T15:18:31;0.65;;;0.63;;
27127;SDS011;14660;49.008;8.390;2022-08-04T15:20:58;3.35;;;1.27;;
27127;SDS011;14660;49.008;8.390;2022-08-04T15:23:27;1.42;;;0.68;;
27127;SDS011;14660;49.008;8.390;2022-08-04T15:25:54;1.75;;;0.90;;
27127;SDS011;14660;49.008;8.390;2022-08-04T15:28:26;1.25;;;1.05;;
27127;SDS011;14660;49.008;8.390;2022-08-04T15:30:57;1.23;;;0.98;;
27127;SDS011;14660;49.008;8.390;2022-08-04T15:33:28;1.80;;;0.73;;
27127;SDS011;14660;49.008;8.390;2022-08-04T15:47:42;1.63;;;0.95;;
27127;SDS011;14660;49.008;8.390;2022-08-04T15:50:11;1.10;;;1.00;;
27127;SDS011;14660;49.008;8.390;2022-08-04T15:58:21;1.75;;;1.10;;
27127;SDS011;14660;49.008;8.390;2022-08-04T16:03:53;1.20;;;1.10;;
27127;SDS011;14660;49.008;8.390;2022-08-04T16:09:04;1.90;;;1.80;;
27127;SDS011;14660;49.008;8.390;2022-08-04T16:14:29;1.40;;;1.25;;
27127;SDS011;14660;49.008;8.390;2022-08-04T16:16:57;2.53;;;1.90;;
27127;SDS011;14660;49.008;8.390;2022-08-04T16:22:38;1.75;;;1.63;;
27127;SDS011;14660;49.008;8.390;2022-08-04T16:25:05;1.60;;;1.50;;
27127;SDS011;14660;49.008;8.390;2022-08-04T16:27:37;1.80;;;1.55;;
27127;SDS011;14660;49.008;8.390;2022-08-04T16:30:13;1.80;;;1.60;;
27127;SDS011;14660;49.008;8.390;2022-08-04T16:32:44;1.52;;;1.42;;
27127;SDS011;14660;49.008;8.390;2022-08-04T16:35:17;4.38;;;1.40;;
27127;SDS011;14660;49.008;8.390;2022-08-04T16:37:51;1.55;;;1.20;;
27127;SDS011;14660;49.008;8.390;2022-08-04T16:40:38;2.85;;;1.60;;
27127;SDS011;14660;49.008;8.390;2022-08-04T16:43:18;2.70;;;1.17;;
27127;SDS011;14660;49.008;8.390;2022-08-04T16:45:49;1.67;;;1.40;;
27127;SDS011;14660;49.008;8.390;2022-08-04T16:51:30;2.05;;;1.63;;
27127;SDS011;14660;49.008;8.390;2022-08-04T16:53:58;3.33;;;1.40;;
27127;SDS011;14660;49.008;8.390;2022-08-04T16:56:30;1.50;;;1.40;;
27127;SDS011;14660;49.008;8.390;2022-08-04T16:58:58;2.10;;;1.73;;
27127;SDS011;14660;49.008;8.390;2022-08-04T17:01:32;3.45;;;2.72;;
27127;SDS011;14660;49.008;8.390;2022-08-04T17:03:59;5.03;;;2.92;;
27127;SDS011;14660;49.008;8.390;2022-08-04T17:06:39;9.05;;;3.63;;
27127;SDS011;14660;49.008;8.390;2022-08-04T17:11:53;4.10;;;1.70;;
27127;SDS011;14660;49.008;8.390;2022-08-04T17:14:24;1.60;;;1.50;;
27127;SDS011;14660;49.008;8.390;2022-08-04T17:16:59;2.95;;;1.92;;
27127;SDS011;14660;49.008;8.390;2022-08-04T17:19:27;3.47;;;1.70;;
27127;SDS011;14660;49.008;8.390;2022-08-04T17:21:55;1.65;;;1.42;;
27127;SDS011;14660;49.008;8.390;2022-08-04T17:24:26;2.80;;;1.75;;
27127;SDS011;14660;49.008;8.390;2022-08-04T17:26:53;2.72;;;1.75;;
27127;SDS011;14660;49.008;8.390;2022-08-04T17:29:22;5.10;;;1.95;;
27127;SDS011;14660;49.008;8.390;2022-08-04T17:31:50;2.15;;;1.92;;
27127;SDS011;14660;49.008;8.390;2022-08-04T17:34:17;3.00;;;1.90;;
27127;SDS011;14660;49.008;8.390;2022-08-04T17:36:46;3.65;;;2.25;;
27127;SDS011;14660;49.008;8.390;2022-08-04T17:39:14;5.00;;;3.88;;
27127;SDS011;14660;49.008;8.390;2022-08-04T17:41:46;5.43;;;4.23;;
27127;SDS011;14660;49.008;8.390;2022-08-04T17:44:13;7.45;;;6.75;;
27127;SDS011;14660;49.008;8.390;2022-08-04T17:46:41;6.75;;;4.20;;
27127;SDS011;14660;49.008;8.390;2022-08-04T17:51:58;2.83;;;2.17;;
27127;SDS011;14660;49.008;8.390;2022-08-04T17:54:32;4.03;;;2.80;;
27127;SDS011;14660;49.008;8.390;2022-08-04T17:57:11;4.28;;;2.30;;
27127;SDS011;14660;49.008;8.390;2022-08-04T18:02:26;2.72;;;2.20;;
27127;SDS011;14660;49.008;8.390;2022-08-04T18:04:57;1.75;;;1.65;;
27127;SDS011;14660;49.008;8.390;2022-08-04T18:07:33;4.47;;;1.80;;
27127;SDS011;14660;49.008;8.390;2022-08-04T18:10:02;4.05;;;2.30;;
27127;SDS011;14660;49.008;8.390;2022-08-04T18:15:21;2.67;;;2.10;;
27127;SDS011;14660;49.008;8.390;2022-08-04T18:17:50;2.78;;;2.20;;
27127;SDS011;14660;49.008;8.390;2022-08-04T18:20:18;2.53;;;2.20;;
27127;SDS011;14660;49.008;8.390;2022-08-04T18:22:46;2.95;;;2.55;;
27127;SDS011;14660;49.008;8.390;2022-08-04T18:25:14;3.10;;;2.80;;
27127;SDS011;14660;49.008;8.390;2022-08-04T18:30:35;3.13;;;2.42;;
27127;SDS011;14660;49.008;8.390;2022-08-04T18:33:02;3.35;;;2.25;;
27127;SDS011;14660;49.008;8.390;2022-08-04T18:35:29;3.00;;;2.63;;
27127;SDS011;14660;49.008;8.390;2022-08-04T18:38:00;3.80;;;2.65;;
27127;SDS011;14660;49.008;8.390;2022-08-04T18:40:27;4.20;;;3.22;;
27127;SDS011;14660;49.008;8.390;2022-08-04T18:42:54;6.45;;;2.92;;
27127;SDS011;14660;49.008;8.390;2022-08-04T18:45:20;2.88;;;2.67;;
27127;SDS011;14660;49.008;8.390;2022-08-04T18:47:49;7.03;;;3.47;;
27127;SDS011;14660;49.008;8.390;2022-08-04T18:50:16;3.38;;;3.13;;
27127;SDS011;14660;49.008;8.390;2022-08-04T18:52:44;4.97;;;2.90;;
27127;SDS011;14660;49.008;8.390;2022-08-04T18:55:11;3.30;;;3.00;;
27127;SDS011;14660;49.008;8.390;2022-08-04T18:57:39;3.60;;;3.20;;
27127;SDS011;14660;49.008;8.390;2022-08-04T19:00:06;5.90;;;4.20;;
27127;SDS011;14660;49.008;8.390;2022-08-04T19:02:33;4.00;;;3.55;;
27127;SDS011;14660;49.008;8.390;2022-08-04T19:05:00;6.32;;;5.03;;
27127;SDS011;14660;49.008;8.390;2022-08-04T19:07:27;6.10;;;3.65;;
27127;SDS011;14660;49.008;8.390;2022-08-04T19:09:54;5.25;;;3.90;;
27127;SDS011;14660;49.008;8.390;2022-08-04T19:12:21;7.53;;;4.35;;
27127;SDS011;14660;49.008;8.390;2022-08-04T19:14:48;5.85;;;4.00;;
27127;SDS011;14660;49.008;8.390;2022-08-04T19:17:14;6.65;;;4.05;;
27127;SDS011;14660;49.008;8.390;2022-08-04T19:19:42;9.13;;;3.58;;
27127;SDS011;14660;49.008;8.390;2022-08-04T19:22:08;5.05;;;3.38;;
27127;SDS011;14660;49.008;8.390;2022-08-04T19:24:35;6.75;;;3.85;;
27127;SDS011;14660;49.008;8.390;2022-08-04T19:27:03;4.15;;;3.72;;
27127;SDS011;14660;49.008;8.390;2022-08-04T19:29:31;4.40;;;3.90;;
27127;SDS011;14660;49.008;8.390;2022-08-04T19:31:57;6.45;;;4.43;;
27127;SDS011;14660;49.008;8.390;2022-08-04T19:34:24;8.02;;;4.60;;
27127;SDS011;14660;49.008;8.390;2022-08-04T19:36:51;5.50;;;4.43;;
27127;SDS011;14660;49.008;8.390;2022-08-04T19:39:18;8.45;;;4.78;;
27127;SDS011;14660;49.008;8.390;2022-08-04T19:41:45;5.97;;;5.18;;
27127;SDS011;14660;49.008;8.390;2022-08-04T19:44:13;6.35;;;4.30;;
27127;SDS011;14660;49.008;8.390;2022-08-04T19:46:40;3.90;;;3.50;;
27127;SDS011;14660;49.008;8.390;2022-08-04T19:49:14;9.10;;;3.80;;
27127;SDS011;14660;49.008;8.390;2022-08-04T19:51:42;5.82;;;4.25;;
27127;SDS011;14660;49.008;8.390;2022-08-04T19:54:11;5.55;;;4.32;;
27127;SDS011;14660;49.008;8.390;2022-08-04T19:56:38;5.55;;;4.45;;
27127;SDS011;14660;49.008;8.390;2022-08-04T19:59:05;7.28;;;3.70;;
27127;SDS011;14660;49.008;8.390;2022-08-04T20:01:32;4.90;;;3.75;;
27127;SDS011;14660;49.008;8.390;2022-08-04T20:03:59;5.97;;;3.63;;
27127;SDS011;14660;49.008;8.390;2022-08-04T20:06:26;3.75;;;3.10;;
27127;SDS011;14660;49.008;8.390;2022-08-04T20:08:54;4.95;;;3.33;;
27127;SDS011;14660;49.008;8.390;2022-08-04T20:11:21;5.07;;;3.15;;
27127;SDS011;14660;49.008;8.390;2022-08-04T20:13:50;3.55;;;3.25;;
27127;SDS011;14660;49.008;8.390;2022-08-04T20:16:16;6.15;;;5.03;;
27127;SDS011;14660;49.008;8.390;2022-08-04T20:18:42;7.05;;;4.85;;
27127;SDS011;14660;49.008;8.390;2022-08-04T20:21:09;6.50;;;4.28;;
27127;SDS011;14660;49.008;8.390;2022-08-04T20:23:36;5.57;;;4.13;;
27127;SDS011;14660;49.008;8.390;2022-08-04T20:26:03;7.53;;;4.10;;
27127;SDS011;14660;49.008;8.390;2022-08-04T20:28:28;4.75;;;4.13;;
27127;SDS011;14660;49.008;8.390;2022-08-04T20:30:54;5.35;;;4.07;;
27127;SDS011;14660;49.008;8.390;2022-08-04T20:33:21;5.28;;;3.50;;
27127;SDS011;14660;49.008;8.390;2022-08-04T20:35:48;5.70;;;4.10;;
27127;SDS011;14660;49.008;8.390;2022-08-04T20:38:15;6.20;;;4.05;;
27127;SDS011;14660;49.008;8.390;2022-08-04T20:40:42;7.10;;;3.95;;
27127;SDS011;14660;49.008;8.390;2022-08-04T20:43:10;5.90;;;4.35;;
27127;SDS011;14660;49.008;8.390;2022-08-04T20:45:36;4.55;;;4.15;;
27127;SDS011;14660;49.008;8.390;2022-08-04T20:48:02;6.63;;;3.58;;
27127;SDS011;14660;49.008;8.390;2022-08-04T20:50:30;4.53;;;3.50;;
27127;SDS011;14660;49.008;8.390;2022-08-04T20:52:57;8.35;;;3.55;;
27127;SDS011;14660;49.008;8.390;2022-08-04T20:55:25;4.22;;;3.38;;
27127;SDS011;14660;49.008;8.390;2022-08-04T20:57:52;4.13;;;3.42;;
27127;SDS011;14660;49.008;8.390;2022-08-04T21:00:19;2.90;;;2.70;;
27127;SDS011;14660;49.008;8.390;2022-08-04T21:02:45;4.20;;;3.15;;
27127;SDS011;14660;49.008;8.390;2022-08-04T21:05:12;6.82;;;3.60;;
27127;SDS011;14660;49.008;8.390;2022-08-04T21:07:39;4.43;;;3.10;;
27127;SDS011;14660;49.008;8.390;2022-08-04T21:10:07;4.65;;;3.25;;
27127;SDS011;14660;49.008;8.390;2022-08-04T21:12:33;5.68;;;3.58;;
27127;SDS011;14660;49.008;8.390;2022-08-04T21:15:00;4.45;;;3.63;;
27127;SDS011;14660;49.008;8.390;2022-08-04T21:17:27;7.50;;;5.05;;
27127;SDS011;14660;49.008;8.390;2022-08-04T21:19:53;7.82;;;4.53;;
27127;SDS011;14660;49.008;8.390;2022-08-04T21:22:20;7.80;;;3.70;;
27127;SDS011;14660;49.008;8.390;2022-08-04T21:24:47;5.85;;;4.03;;
27127;SDS011;14660;49.008;8.390;2022-08-04T21:27:13;8.05;;;4.35;;
27127;SDS011;14660;49.008;8.390;2022-08-04T21:29:40;5.05;;;3.97;;
27127;SDS011;14660;49.008;8.390;2022-08-04T21:32:07;4.00;;;3.60;;
27127;SDS011;14660;49.008;8.390;2022-08-04T21:34:35;7.00;;;3.75;;
27127;SDS011;14660;49.008;8.390;2022-08-04T21:37:01;4.00;;;2.92;;
27127;SDS011;14660;49.008;8.390;2022-08-04T21:39:28;6.72;;;3.60;;
27127;SDS011;14660;49.008;8.390;2022-08-04T21:41:55;6.13;;;3.92;;
27127;SDS011;14660;49.008;8.390;2022-08-04T21:44:22;6.85;;;3.53;;
27127;SDS011;14660;49.008;8.390;2022-08-04T21:46:49;3.97;;;3.08;;
27127;SDS011;14660;49.008;8.390;2022-08-04T21:49:16;4.20;;;3.20;;
27127;SDS011;14660;49.008;8.390;2022-08-04T21:51:43;5.82;;;3.72;;
27127;SDS011;14660;49.008;8.390;2022-08-04T21:54:10;6.55;;;3.38;;
27127;SDS011;14660;49.008;8.390;2022-08-04T21:56:37;6.45;;;3.60;;
27127;SDS011;14660;49.008;8.390;2022-08-04T21:59:04;4.70;;;3.17;;
27127;SDS011;14660;49.008;8.390;2022-08-04T22:01:32;4.30;;;3.40;;
27127;SDS011;14660;49.008;8.390;2022-08-04T22:03:59;4.35;;;3.38;;
27127;SDS011;14660;49.008;8.390;2022-08-04T22:06:26;4.03;;;3.08;;
27127;SDS011;14660;49.008;8.390;2022-08-04T22:08:53;5.85;;;3.17;;
27127;SDS011;14660;49.008;8.390;2022-08-04T22:14:05;5.57;;;3.55;;
27127;SDS011;14660;49.008;8.390;2022-08-04T22:16:33;6.90;;;3.28;;